Portada
METAR-TAF:

METAR-TAF

Aeroports :

Aeroport de Copenhaguen

Copenhaguen, Dinamarca

latitud: 55-37N, longitud: 012-39E, altitud: 5 m

Observació

L'informe es va fer fa 17 minuts, a les 07:50 UTC
Vent 11 kt del Nord
Temperatura 16°C
Humitat 59%
Pressió 1027 hPa
Visibilitat 10 km o més

METAR: EKCH 310750Z AUTO 36011KT 9999 NCD 16/08 Q1027 NOSIG

Hora: 10:07 (08:07 UTC)

Pronòstic

L'informe es va fer fa 3 hores i 6 minuts, a les 05:01 UTC
Pronòstic vàlid del 31 a les 06 UTC al 01 a les 06 UTC
Vent 12 kt del Nord/Nord-Est
Visibilitat 10 km o més
Escasses núvols a una alçada de 4000 ft
Evolucionant progressivament
l' 31 a les 13 UTC al 31 a les 16 UTC
Vent 6 kt del Est/Sud-Est

TAF: EKCH 310501Z 3106/0106 03012KT 9999 FEW040 BECMG 3113/3116 11006KT

Observacions i pronòstics meteorològics de més de 4000 aeroports (METAR i TAF).

Les estacions disponibles són els punts grocs i vermells al mapa.

Posi el ratolí al punt desitjat per veure el nom de l'estació.

Feu clic per veure les observacions i els pronòstics meteorològics.

Per canviar el mapa: feu clic els botons verds amb una creu de color negre per apropar; al botó verd amb un guió per allunyar la imatge; o en les fletxes verdes per a mapes adjacents.


METAR-TAF: